Time;durP1;ratioP1;P1;durP2;ratioP2;P2;SDS_P1;SDS_P2;PMS_P1;PMS_P2;Temp;Humidity;BMP_temperature;BMP_pressure;BME280_temperature;BME280_humidity;BME280_pressure;Samples;Min_cycle;Max_cycle;Signal;HPM_P1;HPM_P2
2021/11/17 02:28:05;;;;;;;14.65;3.17;;;;;;;-149.78;100.00;50514.47;5034329;28;20432;-61
2021/11/17 02:30:37;;;;;;;16.17;2.85;;;;;;;-149.78;100.00;50537.94;5069144;28;20037;-68
2021/11/17 02:33:15;;;;;;;25.20;2.87;;;;;;;-149.78;100.00;50506.66;5070541;28;20127;-68
2021/11/17 02:36:10;;;;;;;24.27;3.03;;;;;;;-149.78;100.00;50500.78;5070990;28;20033;-68
2021/11/17 02:38:51;;;;;;;20.75;4.93;;;;;;;-149.78;100.00;50518.38;5063226;28;20044;-68
2021/11/17 02:41:39;;;;;;;23.10;5.32;;;;;;;-149.78;100.00;50522.28;5069398;28;20037;-68
2021/11/17 02:44:33;;;;;;;17.65;3.08;;;;;;;-149.78;100.00;50500.78;5072478;28;20492;-68
2021/11/17 02:47:10;;;;;;;13.88;3.10;;;;;;;-149.78;100.00;50557.50;5073102;28;20089;-68
2021/11/17 02:49:48;;;;;;;18.70;3.22;;;;;;;-149.78;100.00;50502.75;5071339;28;20048;-68
2021/11/17 02:52:19;;;;;;;23.63;3.47;;;;;;;-149.78;100.00;50473.41;5071302;28;20086;-68
2021/11/17 02:55:00;;;;;;;17.20;3.60;;;;;;;-149.78;100.00;50530.13;5053764;28;20029;-68
2021/11/17 02:57:35;;;;;;;23.42;3.88;;;;;;;-149.78;100.00;50549.69;5065492;28;20035;-68
2021/11/17 03:00:27;;;;;;;13.90;2.88;;;;;;;-149.78;100.00;50541.84;5070060;28;20521;-68
2021/11/17 03:03:17;;;;;;;14.18;2.88;;;;;;;-149.78;100.00;50522.28;5057920;28;20072;-68
2021/11/17 03:05:45;;;;;;;18.98;3.22;;;;;;;-149.78;100.00;50522.28;5071044;28;20024;-68
2021/11/17 03:08:34;;;;;;;21.90;3.53;;;;;;;-149.78;100.00;50502.75;5070142;28;20456;-68
2021/11/17 03:11:22;;;;;;;18.48;3.30;;;;;;;-149.78;100.00;50483.19;5063744;28;20440;-68
2021/11/17 03:13:57;;;;;;;22.85;4.43;;;;;;;-149.78;100.00;50514.47;5059893;28;20032;-68
2021/11/17 03:16:38;;;;;;;21.55;3.65;;;;;;;-149.78;100.00;50514.47;5064132;28;20036;-68
2021/11/17 03:19:25;;;;;;;24.85;3.22;;;;;;;-149.78;100.00;50506.66;5061007;28;20043;-67
2021/11/17 03:22:15;;;;;;;12.63;2.95;;;;;;;-149.78;100.00;50541.84;5058116;28;20036;-68
2021/11/17 03:25:00;;;;;;;17.08;3.30;;;;;;;-149.78;100.00;50512.50;5070616;28;20115;-68
2021/11/17 03:27:44;;;;;;;17.48;3.33;;;;;;;-149.78;100.00;50522.28;5061751;28;20029;-68
2021/11/17 03:30:30;;;;;;;19.35;3.47;;;;;;;-149.78;100.00;50537.94;5044173;28;20462;-67
2021/11/17 03:33:17;;;;;;;20.80;3.95;;;;;;;-149.78;100.00;50518.38;5063831;28;20052;-68
2021/11/17 03:35:49;;;;;;;14.43;2.75;;;;;;;-149.78;100.00;50534.03;5059741;28;20086;-68
2021/11/17 03:38:18;;;;;;;11.52;2.50;;;;;;;-149.78;100.00;50534.03;5072637;28;20031;-68
2021/11/17 03:40:59;;;;;;;18.08;2.90;;;;;;;-149.78;100.00;50483.19;5056421;28;20116;-67
2021/11/17 03:43:54;;;;;;;11.90;2.47;;;;;;;-149.78;100.00;50528.16;5056671;28;20029;-68
2021/11/17 03:46:38;;;;;;;12.35;3.28;;;;;;;-149.78;100.00;50514.47;5014842;28;20042;-68
2021/11/17 03:49:03;;;;;;;13.60;2.72;;;;;;;-149.78;100.00;50522.28;5054996;28;20028;-67
2021/11/17 03:51:29;;;;;;;12.93;2.30;;;;;;;-149.78;100.00;50526.22;5054674;28;20376;-68
2021/11/17 03:54:04;;;;;;;6.93;1.95;;;;;;;-149.78;100.00;50504.69;5062953;28;20103;-68
2021/11/17 03:56:51;;;;;;;12.07;2.42;;;;;;;-149.78;100.00;50547.72;5062118;28;20123;-68
2021/11/17 03:59:47;;;;;;;10.18;2.70;;;;;;;-149.78;100.00;50510.56;5058316;28;20037;-68
2021/11/17 04:02:33;;;;;;;12.40;2.30;;;;;;;-149.78;100.00;50512.50;5055289;28;20514;-68
2021/11/17 04:05:01;;;;;;;9.30;2.03;;;;;;;-149.78;100.00;50551.63;5061917;28;20036;-68
2021/11/17 04:07:26;;;;;;;9.10;1.80;;;;;;;-149.78;100.00;50541.84;5064766;28;20056;-67
2021/11/17 04:10:27;;;;;;;12.27;2.17;;;;;;;-149.78;100.00;50549.69;5058013;28;20106;-67
2021/11/17 04:13:39;;;;;;;10.40;2.63;;;;;;;-149.78;100.00;50537.94;5070538;28;20039;-67
2021/11/17 04:16:29;;;;;;;17.45;2.75;;;;;;;-149.78;100.00;50526.22;5047343;28;20356;-67
2021/11/17 04:19:07;;;;;;;13.15;2.42;;;;;;;-149.78;100.00;50526.22;5065852;28;20079;-67
2021/11/17 04:22:00;;;;;;;16.08;2.47;;;;;;;-149.78;100.00;50514.47;5066192;28;20029;-67
2021/11/17 04:24:44;;;;;;;12.45;1.88;;;;;;;-149.78;100.00;50563.38;5065649;28;20407;-67
2021/11/17 04:27:27;;;;;;;14.18;2.28;;;;;;;-149.78;100.00;50539.91;5053488;28;20104;-68
2021/11/17 04:30:13;;;;;;;18.80;2.47;;;;;;;-149.78;100.00;50569.22;5057023;28;20028;-67
2021/11/17 04:32:57;;;;;;;12.85;1.90;;;;;;;-149.78;100.00;50553.59;5057169;28;20545;-69
2021/11/17 04:35:42;;;;;;;16.02;2.05;;;;;;;-149.78;100.00;50520.34;5056132;28;20115;-68
2021/11/17 04:38:30;;;;;;;11.73;2.03;;;;;;;-149.78;100.00;50557.50;5054882;28;20033;-68
2021/11/17 04:41:04;;;;;;;13.15;1.80;;;;;;;-149.78;100.00;50518.38;5064153;28;20071;-68
2021/11/17 04:43:33;;;;;;;8.30;1.88;;;;;;;-149.78;100.00;50506.66;5056158;28;20472;-68
2021/11/17 04:46:21;;;;;;;9.70;2.10;;;;;;;-149.78;100.00;50489.03;5064225;28;20067;-68
2021/11/17 04:49:05;;;;;;;10.45;1.67;;;;;;;-149.78;100.00;50522.28;5056095;28;20140;-68
2021/11/17 04:51:59;;;;;;;7.95;1.52;;;;;;;-149.78;100.00;50498.81;5059832;28;20028;-68
2021/11/17 04:54:31;;;;;;;8.27;2.45;;;;;;;-149.78;100.00;50516.44;5059499;28;20033;-68
2021/11/17 04:57:39;;;;;;;10.52;1.80;;;;;;;-149.78;100.00;50530.13;5065220;28;20415;-68
2021/11/17 05:00:27;;;;;;;11.10;2.75;;;;;;;-149.78;100.00;50543.81;5044291;28;20500;-68
2021/11/17 05:02:56;;;;;;;8.27;1.60;;;;;;;-149.78;100.00;50506.66;5053441;28;20555;-68
2021/11/17 05:05:34;;;;;;;14.20;1.88;;;;;;;-149.78;100.00;50532.06;5055621;28;20028;-68
2021/11/17 05:08:19;;;;;;;19.70;1.70;;;;;;;-149.78;100.00;50506.66;5065776;28;20047;-68
2021/11/17 05:11:06;;;;;;;13.90;2.13;;;;;;;-149.78;100.00;50541.84;5071481;28;20028;-68
2021/11/17 05:13:52;;;;;;;13.23;2.17;;;;;;;-149.78;100.00;50514.47;5052239;28;20029;-68
2021/11/17 05:16:46;;;;;;;12.93;1.80;;;;;;;-149.78;100.00;50504.69;5064892;28;20036;-68
2021/11/17 05:19:24;;;;;;;11.23;1.88;;;;;;;-149.78;100.00;50526.22;5060945;28;20515;-68
2021/11/17 05:21:58;;;;;;;14.57;3.28;;;;;;;-149.78;100.00;50561.41;5067698;28;20119;-68
2021/11/17 05:24:43;;;;;;;12.75;2.75;;;;;;;-149.78;100.00;50541.84;5059800;28;20455;-68
2021/11/17 05:27:09;;;;;;;9.10;2.42;;;;;;;-149.78;100.00;50532.06;5056918;28;20097;-68
2021/11/17 05:30:04;;;;;;;12.35;2.47;;;;;;;-149.78;100.00;50557.50;5073572;28;20552;-68
2021/11/17 05:32:39;;;;;;;7.85;1.95;;;;;;;-149.78;100.00;50522.28;5055910;28;20111;-68
2021/11/17 05:35:17;;;;;;;13.38;2.25;;;;;;;-149.78;100.00;50537.94;5057035;28;20091;-68
2021/11/17 05:38:15;;;;;;;14.50;3.05;;;;;;;-149.78;100.00;50532.06;5058978;28;20110;-68
2021/11/17 05:40:58;;;;;;;10.30;2.30;;;;;;;-149.78;100.00;50537.94;5057677;28;20036;-68
2021/11/17 05:43:36;;;;;;;19.40;2.47;;;;;;;-149.78;100.00;50514.47;5055984;28;20033;-68
2021/11/17 05:46:20;;;;;;;19.90;3.35;;;;;;;-149.78;100.00;50537.94;5057322;28;20035;-68
2021/11/17 05:49:07;;;;;;;15.25;4.13;;;;;;;-149.78;100.00;50532.06;5056165;28;20059;-68
2021/11/17 05:51:51;;;;;;;8.45;1.90;;;;;;;-149.78;100.00;50543.81;5052141;28;20032;-68
2021/11/17 05:54:35;;;;;;;14.23;3.55;;;;;;;-149.78;100.00;50545.75;5051590;28;20025;-69
2021/11/17 05:57:19;;;;;;;10.93;2.22;;;;;;;-149.78;100.00;50518.38;5065442;28;20526;-69
2021/11/17 06:00:13;;;;;;;14.27;3.28;;;;;;;-149.78;100.00;50565.31;5054414;28;20025;-69
2021/11/17 06:03:13;;;;;;;13.60;2.60;;;;;;;-149.78;100.00;50508.59;5050243;28;20040;-69
2021/11/17 06:05:38;;;;;;;11.18;2.20;;;;;;;-149.78;100.00;50537.94;5055963;28;20086;-69
2021/11/17 06:08:03;;;;;;;17.95;3.08;;;;;;;-149.78;100.00;50557.50;5084112;28;20033;-69
2021/11/17 06:10:42;;;;;;;17.85;2.90;;;;;;;-149.78;100.00;50534.03;5074641;28;20116;-68
2021/11/17 06:13:11;;;;;;;10.50;2.42;;;;;;;-149.78;100.00;50522.28;5071643;28;20056;-69
2021/11/17 06:15:37;;;;;;;16.30;2.58;;;;;;;-149.78;100.00;50545.75;5072328;28;20487;-69
2021/11/17 06:18:08;;;;;;;11.35;2.20;;;;;;;-149.78;100.00;50510.56;5070588;28;20032;-68
2021/11/17 06:20:37;;;;;;;7.10;1.77;;;;;;;-149.78;100.00;50530.13;5072081;28;20433;-69
2021/11/17 06:23:08;;;;;;;16.67;2.17;;;;;;;-149.78;100.00;50537.94;5069952;28;20109;-69
2021/11/17 06:25:37;;;;;;;15.43;2.20;;;;;;;-149.78;100.00;50537.94;5068242;28;20055;-70
2021/11/17 06:28:04;;;;;;;12.93;2.90;;;;;;;-149.78;100.00;50551.63;5070445;28;20024;-68
2021/11/17 06:30:34;;;;;;;10.75;2.38;;;;;;;-149.78;100.00;50530.13;5073499;28;20024;-68
2021/11/17 06:33:01;;;;;;;9.55;2.05;;;;;;;-149.78;100.00;50557.50;5071524;28;20119;-68
2021/11/17 06:35:27;;;;;;;9.63;1.92;;;;;;;-149.78;100.00;50545.75;5071653;28;20090;-68
2021/11/17 06:37:55;;;;;;;9.80;2.20;;;;;;;-149.78;100.00;50524.25;5071964;28;20284;-68
2021/11/17 06:40:22;;;;;;;13.13;2.63;;;;;;;-149.78;100.00;50518.38;5068616;28;20123;-68
2021/11/17 06:42:57;;;;;;;9.52;2.60;;;;;;;-149.78;100.00;50530.13;5068179;28;20032;-69
2021/11/17 06:45:43;;;;;;;15.10;2.85;;;;;;;-149.78;100.00;50508.59;5072858;28;20112;-68
2021/11/17 06:48:10;;;;;;;9.82;2.08;;;;;;;-149.78;100.00;50534.03;5072284;28;20024;-67
2021/11/17 06:50:39;;;;;;;11.45;2.53;;;;;;;-149.78;100.00;50553.59;5073943;28;20083;-67
2021/11/17 06:53:05;;;;;;;11.05;2.03;;;;;;;-149.78;100.00;50547.72;5069995;28;20112;-67
2021/11/17 06:55:31;;;;;;;15.85;2.53;;;;;;;-149.78;100.00;50530.13;5063810;28;20036;-67
2021/11/17 06:57:57;;;;;;;9.60;2.33;;;;;;;-149.78;100.00;50577.06;5069908;28;20106;-67
2021/11/17 07:00:26;;;;;;;13.95;2.70;;;;;;;-149.78;100.00;50557.50;5071418;28;20065;-67
2021/11/17 07:02:51;;;;;;;22.98;3.17;;;;;;;-149.78;100.00;50579.00;5072008;28;20066;-67
2021/11/17 07:05:19;;;;;;;17.70;2.55;;;;;;;-149.78;100.00;50532.06;5072417;28;20043;-67
2021/11/17 07:07:45;;;;;;;13.27;3.75;;;;;;;-149.78;100.00;50541.84;5071861;28;20032;-67
2021/11/17 07:10:13;;;;;;;12.63;2.50;;;;;;;-149.78;100.00;50522.28;5074002;28;20056;-68
2021/11/17 07:12:39;;;;;;;11.45;2.40;;;;;;;-149.78;100.00;50577.06;5073867;28;20443;-68
2021/11/17 07:15:07;;;;;;;17.30;2.72;;;;;;;-149.78;100.00;50502.75;5066564;28;20029;-68
2021/11/17 07:17:33;;;;;;;14.90;2.58;;;;;;;-149.78;100.00;50549.69;5069851;28;20704;-68
2021/11/17 07:19:59;;;;;;;14.80;2.50;;;;;;;-149.78;100.00;50537.94;5069558;28;20040;-67
2021/11/17 07:22:25;;;;;;;13.07;2.63;;;;;;;-149.78;100.00;50543.81;5072241;28;20379;-68
2021/11/17 07:24:50;;;;;;;19.25;3.90;;;;;;;-149.78;100.00;50549.69;5071364;28;20032;-69
2021/11/17 07:27:22;;;;;;;16.08;2.63;;;;;;;-149.78;100.00;50584.88;5071195;28;20411;-68
2021/11/17 07:29:54;;;;;;;15.10;3.92;;;;;;;-149.78;100.00;50526.22;5071248;28;20044;-68
2021/11/17 07:32:25;;;;;;;23.45;3.55;;;;;;;-149.78;100.00;50561.41;5064742;28;20029;-69
2021/11/17 07:34:52;;;;;;;16.33;3.25;;;;;;;-149.78;100.00;50541.84;5057218;28;20056;-68
2021/11/17 07:37:18;;;;;;;18.10;2.90;;;;;;;-149.78;100.00;50577.06;5068722;28;20083;-69
2021/11/17 07:39:44;;;;;;;14.77;2.30;;;;;;;-149.78;100.00;50522.28;5067451;28;20040;-68
2021/11/17 07:42:10;;;;;;;11.15;2.60;;;;;;;-149.78;100.00;50543.81;5061825;28;20087;-68
2021/11/17 07:44:36;;;;;;;10.75;2.63;;;;;;;-149.78;100.00;50510.56;5070126;28;20029;-69
2021/11/17 07:47:03;;;;;;;15.60;2.53;;;;;;;-149.78;100.00;50553.59;5065730;28;20047;-69
2021/11/17 07:49:29;;;;;;;12.20;3.20;;;;;;;-149.78;100.00;50526.22;5069537;28;20028;-69
2021/11/17 07:51:57;;;;;;;22.50;3.28;;;;;;;-149.78;100.00;50516.44;5068147;28;20059;-69
2021/11/17 07:54:26;;;;;;;18.98;3.08;;;;;;;-149.78;100.00;50532.06;5066512;28;20033;-68
2021/11/17 07:56:52;;;;;;;25.95;5.80;;;;;;;-149.78;100.00;50549.69;5069330;28;20159;-69
2021/11/17 07:59:22;;;;;;;16.77;3.72;;;;;;;-149.78;100.00;50537.94;5068527;28;20476;-67
2021/11/17 08:01:50;;;;;;;22.92;3.92;;;;;;;-149.78;100.00;50543.81;5063441;28;20032;-68
2021/11/17 08:04:21;;;;;;;19.02;3.60;;;;;;;-149.78;100.00;50534.03;5059021;28;20029;-68
2021/11/17 08:06:47;;;;;;;19.98;3.47;;;;;;;-149.78;100.00;50553.59;5060156;28;20456;-67
2021/11/17 08:09:14;;;;;;;14.00;3.47;;;;;;;-149.78;100.00;50512.50;5065980;28;20032;-68
2021/11/17 08:11:41;;;;;;;15.63;3.50;;;;;;;-149.78;100.00;50500.78;5070693;28;20036;-69
2021/11/17 08:14:07;;;;;;;16.70;3.40;;;;;;;-149.78;100.00;50526.22;5069228;28;20036;-67
2021/11/17 08:16:32;;;;;;;13.90;3.60;;;;;;;-149.78;100.00;50545.75;5073116;28;20039;-67
2021/11/17 08:19:00;;;;;;;18.95;3.75;;;;;;;-149.78;100.00;50491.00;5061779;28;20045;-66
2021/11/17 08:21:26;;;;;;;22.90;3.38;;;;;;;-149.78;100.00;50528.16;5066495;28;20032;-66
2021/11/17 08:23:51;;;;;;;22.92;3.53;;;;;;;-149.78;100.00;50522.28;5067801;28;20034;-68
2021/11/17 08:26:19;;;;;;;17.67;4.88;;;;;;;-149.78;100.00;50534.03;5066007;28;20047;-66
2021/11/17 08:28:46;;;;;;;14.60;3.40;;;;;;;-149.78;100.00;50508.59;5070770;28;20029;-67
2021/11/17 08:31:13;;;;;;;12.45;3.25;;;;;;;-149.78;100.00;50522.28;5068293;28;20068;-67
2021/11/17 08:33:42;;;;;;;15.93;3.70;;;;;;;-149.78;100.00;50537.94;5065330;28;20043;-66
2021/11/17 08:36:08;;;;;;;17.08;3.25;;;;;;;-149.78;100.00;50549.69;5061663;28;20020;-68
2021/11/17 08:38:35;;;;;;;25.70;3.97;;;;;;;-149.78;100.00;50577.06;5056842;28;20102;-68
2021/11/17 08:41:05;;;;;;;22.45;3.38;;;;;;;-149.78;100.00;50545.75;5059546;28;20040;-67
2021/11/17 08:43:32;;;;;;;23.60;3.75;;;;;;;-149.78;100.00;50557.50;5060108;28;20039;-67
2021/11/17 08:45:58;;;;;;;22.90;3.63;;;;;;;-149.78;100.00;50510.56;5068628;28;20040;-66
2021/11/17 08:48:27;;;;;;;22.77;3.55;;;;;;;-149.78;100.00;50530.13;5067838;28;20032;-66
2021/11/17 08:50:55;;;;;;;16.30;3.47;;;;;;;-149.78;100.00;50557.50;5066132;28;20116;-66
2021/11/17 08:53:24;;;;;;;16.77;4.35;;;;;;;-149.78;100.00;50520.34;5066201;28;20032;-66
2021/11/17 08:55:51;;;;;;;21.20;4.00;;;;;;;-149.78;100.00;50543.81;5063436;28;20024;-66
2021/11/17 08:58:19;;;;;;;20.08;3.80;;;;;;;-149.78;100.00;50514.47;5064866;28;20034;-66
2021/11/17 09:00:47;;;;;;;19.75;3.75;;;;;;;-149.78;100.00;50502.75;5064191;28;20150;-66
2021/11/17 09:03:12;;;;;;;20.77;4.68;;;;;;;-149.78;100.00;50504.69;5069521;28;20085;-66
2021/11/17 09:05:45;;;;;;;23.20;4.35;;;;;;;-149.78;100.00;50491.00;5062577;28;20044;-67
2021/11/17 09:08:11;;;;;;;22.30;4.35;;;;;;;-149.78;100.00;50502.75;5067362;28;20031;-66
2021/11/17 09:10:41;;;;;;;26.17;4.28;;;;;;;-149.78;100.00;50510.56;5072435;28;20407;-66
2021/11/17 09:13:08;;;;;;;15.45;3.17;;;;;;;-149.78;100.00;50502.75;5068062;28;20040;-66
2021/11/17 09:15:38;;;;;;;19.85;3.60;;;;;;;-149.78;100.00;50502.75;5070656;28;20042;-66
2021/11/17 09:18:06;;;;;;;28.38;4.45;;;;;;;-149.78;100.00;50491.00;5069125;28;20032;-66
2021/11/17 09:20:34;;;;;;;18.92;3.83;;;;;;;-149.78;100.00;50506.66;5063031;28;20547;-66
2021/11/17 09:23:01;;;;;;;9.63;2.83;;;;;;;-149.78;100.00;50545.75;5070073;28;20112;-66
2021/11/17 09:25:28;;;;;;;8.88;2.50;;;;;;;-149.78;100.00;50541.84;5068702;28;20033;-66
2021/11/17 09:27:54;;;;;;;16.52;3.47;;;;;;;-149.78;100.00;50510.56;5068988;28;20028;-66
2021/11/17 09:30:26;;;;;;;24.88;4.05;;;;;;;-149.78;100.00;50514.47;5065043;28;20082;-66
2021/11/17 09:32:54;;;;;;;23.27;4.38;;;;;;;-149.78;100.00;50504.69;5065780;28;20537;-66
2021/11/17 09:35:21;;;;;;;11.35;3.45;;;;;;;-149.78;100.00;50494.91;5057690;28;20124;-66
2021/11/17 09:37:50;;;;;;;24.35;4.82;;;;;;;-149.78;100.00;50479.28;5058316;28;20480;-66
2021/11/17 09:40:22;;;;;;;23.65;5.05;;;;;;;-149.78;100.00;50518.38;5066734;28;20082;-66
2021/11/17 09:42:49;;;;;;;20.92;4.43;;;;;;;-149.78;100.00;50506.66;5062998;28;20028;-66
2021/11/17 09:45:15;;;;;;;15.63;3.72;;;;;;;-149.78;100.00;50479.28;5067679;28;20045;-66
2021/11/17 09:47:44;;;;;;;12.63;3.20;;;;;;;-149.78;100.00;50522.28;5056302;28;20368;-66
2021/11/17 09:50:18;;;;;;;23.92;3.67;;;;;;;-149.78;100.00;50504.69;5068814;28;20124;-66
2021/11/17 09:53:02;;;;;;;33.97;5.13;;;;;;;-149.78;100.00;50491.00;5065167;28;20032;-66
2021/11/17 09:56:00;;;;;;;19.70;4.03;;;;;;;-149.78;100.00;50498.81;5068791;28;20032;-66
2021/11/17 09:58:34;;;;;;;136.93;15.95;;;;;;;-149.78;100.00;50541.84;5055207;28;20037;-66
2021/11/17 10:01:13;;;;;;;22.90;4.93;;;;;;;-149.78;100.00;50494.91;5052544;28;20538;-66
2021/11/17 10:03:55;;;;;;;21.98;5.95;;;;;;;-149.78;100.00;50510.56;5063050;28;20111;-66
2021/11/17 10:15:01;;;;;;;14.40;3.08;;;;;;;-149.78;100.00;50477.31;5061907;28;20174;-66
2021/11/17 10:17:42;;;;;;;18.00;4.93;;;;;;;-149.78;100.00;50518.38;5063105;28;20039;-66
2021/11/17 10:20:10;;;;;;;13.90;3.88;;;;;;;-149.78;100.00;50459.72;5054856;28;20481;-66
2021/11/17 10:22:38;;;;;;;16.98;5.18;;;;;;;-149.78;100.00;50494.91;5054623;28;20052;-66
2021/11/17 10:25:11;;;;;;;15.07;3.38;;;;;;;-149.78;100.00;50489.03;5060183;28;20041;-66
2021/11/17 10:27:47;;;;;;;23.23;4.63;;;;;;;-149.78;100.00;50526.22;5056159;28;20032;-66
2021/11/17 10:30:30;;;;;;;14.45;3.03;;;;;;;-149.78;100.00;50471.44;5058542;28;20033;-66
2021/11/17 10:33:03;;;;;;;22.55;4.65;;;;;;;-149.78;100.00;50498.81;5058107;28;20124;-66
2021/11/17 10:35:36;;;;;;;11.93;3.22;;;;;;;-149.78;100.00;50487.09;5064566;28;20120;-66
2021/11/17 10:38:07;;;;;;;14.63;3.47;;;;;;;-149.78;100.00;50477.31;5062808;28;20032;-66
2021/11/17 10:40:45;;;;;;;18.00;3.50;;;;;;;-149.78;100.00;50467.53;5058511;28;20040;-66
2021/11/17 10:43:19;;;;;;;14.98;3.35;;;;;;;-149.78;100.00;50467.53;5053788;28;20397;-66
2021/11/17 10:45:50;;;;;;;15.40;3.35;;;;;;;-149.78;100.00;50477.31;5064786;28;20032;-66
2021/11/17 10:48:20;;;;;;;24.00;4.22;;;;;;;-149.78;100.00;50459.72;5060923;28;20028;-66
2021/11/17 10:50:46;;;;;;;10.88;3.38;;;;;;;-149.78;100.00;50463.63;5055166;28;20033;-66
2021/11/17 10:53:24;;;;;;;10.75;2.97;;;;;;;-149.78;100.00;50469.50;5063546;28;20078;-66
2021/11/17 10:55:53;;;;;;;17.60;3.28;;;;;;;-149.78;100.00;50491.00;5066441;28;20410;-66
2021/11/17 10:58:21;;;;;;;19.05;4.15;;;;;;;-149.78;100.00;50459.72;5060670;28;20036;-66
2021/11/17 11:00:58;;;;;;;12.48;3.28;;;;;;;-149.78;100.00;50483.19;5055434;28;20033;-66
2021/11/17 11:03:26;;;;;;;19.80;4.13;;;;;;;-149.78;100.00;50479.28;5064348;28;20029;-66
2021/11/17 11:06:10;;;;;;;23.58;4.47;;;;;;;-149.78;100.00;50461.66;5065373;28;20429;-66
2021/11/17 11:08:41;;;;;;;12.48;3.63;;;;;;;-149.78;100.00;50494.91;5066360;28;20163;-66
2021/11/17 11:11:08;;;;;;;16.40;3.70;;;;;;;-149.78;100.00;50491.00;5074352;28;20072;-66
2021/11/17 11:13:42;;;;;;;22.00;4.47;;;;;;;-149.78;100.00;50494.91;5071978;28;20074;-66
2021/11/17 11:16:21;;;;;;;18.02;3.75;;;;;;;-149.78;100.00;50485.13;5073420;28;20032;-66
2021/11/17 11:18:51;;;;;;;13.23;3.55;;;;;;;-149.78;100.00;50475.34;5067675;28;20059;-66
2021/11/17 11:21:36;;;;;;;14.15;3.58;;;;;;;-149.78;100.00;50479.28;5074806;28;20040;-66
2021/11/17 11:24:30;;;;;;;13.20;3.03;;;;;;;-149.78;100.00;50483.19;5065142;28;20052;-66
2021/11/17 11:26:58;;;;;;;10.13;3.90;;;;;;;-149.78;100.00;50479.28;5065348;28;20025;-66
2021/11/17 11:29:33;;;;;;;12.65;3.60;;;;;;;-149.78;100.00;50489.03;5060626;28;20041;-66
2021/11/17 11:32:00;;;;;;;14.52;3.35;;;;;;;-149.78;100.00;50481.22;5064237;28;20083;-66
2021/11/17 11:34:32;;;;;;;16.33;3.65;;;;;;;-149.78;100.00;50487.09;5057437;28;20049;-66
2021/11/17 11:36:59;;;;;;;16.58;3.92;;;;;;;-149.78;100.00;50432.31;5067524;28;20377;-66
2021/11/17 11:39:28;;;;;;;12.23;3.72;;;;;;;-149.78;100.00;50534.03;5069796;28;20029;-66
2021/11/17 11:42:13;;;;;;;14.60;3.97;;;;;;;-149.78;100.00;50522.28;5070288;28;20047;-66
2021/11/17 11:44:55;;;;;;;15.85;4.78;;;;;;;-149.78;100.00;50508.59;5063036;28;20367;-66
2021/11/17 11:47:20;;;;;;;24.40;6.45;;;;;;;-149.78;100.00;50498.81;5064115;28;20029;-66
2021/11/17 11:49:54;;;;;;;18.63;4.65;;;;;;;-149.78;100.00;50491.00;5062216;28;20519;-66
2021/11/17 11:52:23;;;;;;;15.90;4.93;;;;;;;-149.78;100.00;50526.22;5067495;28;20036;-66
2021/11/17 11:54:51;;;;;;;18.08;5.68;;;;;;;-149.78;100.00;50475.34;5060427;28;20504;-66
2021/11/17 11:58:18;;;;;;;22.00;6.63;;;;;;;-149.78;100.00;50514.47;5059861;28;20087;-66
2021/11/17 12:00:46;;;;;;;36.55;7.75;;;;;;;-149.78;100.00;50506.66;5015898;28;20037;-66
2021/11/17 12:03:17;;;;;;;23.75;6.60;;;;;;;-149.78;100.00;50479.28;5019335;28;20088;-66
2021/11/17 12:05:49;;;;;;;26.58;6.93;;;;;;;-149.78;100.00;50491.00;5045342;28;20048;-66
2021/11/17 12:08:39;;;;;;;24.58;6.68;;;;;;;-149.78;100.00;50494.91;5070828;28;20101;-66
2021/11/17 12:11:04;;;;;;;22.38;7.80;;;;;;;-149.78;100.00;50475.34;5072061;28;20094;-66
2021/11/17 12:13:38;;;;;;;18.02;6.97;;;;;;;-149.78;100.00;50479.28;5072430;28;20029;-66
2021/11/17 12:16:13;;;;;;;21.33;7.82;;;;;;;-149.78;100.00;50498.81;5072822;28;20115;-66
2021/11/17 12:18:49;;;;;;;22.35;7.03;;;;;;;-149.78;100.00;50471.44;5069081;28;20027;-66
2021/11/17 12:21:22;;;;;;;18.00;6.82;;;;;;;-149.78;100.00;50485.13;5060366;28;20033;-66
2021/11/17 12:24:09;;;;;;;21.75;6.05;;;;;;;-149.78;100.00;50487.09;5066458;28;20021;-66
2021/11/17 12:26:41;;;;;;;28.52;6.78;;;;;;;-149.78;100.00;50467.53;5064424;28;20034;-66
2021/11/17 12:29:20;;;;;;;17.85;5.53;;;;;;;-149.78;100.00;50545.75;5067170;28;20028;-66
2021/11/17 12:31:56;;;;;;;22.05;6.25;;;;;;;-149.78;100.00;50491.00;5056392;28;20029;-66
2021/11/17 12:34:47;;;;;;;28.33;6.00;;;;;;;-149.78;100.00;50451.88;5052640;28;20045;-66
2021/11/17 12:37:25;;;;;;;28.20;5.70;;;;;;;-149.78;100.00;50471.44;5063305;28;20123;-66
2021/11/17 12:40:00;;;;;;;21.80;5.25;;;;;;;-149.78;100.00;50451.88;5066691;28;20029;-66
2021/11/17 12:42:33;;;;;;;17.35;4.70;;;;;;;-149.78;100.00;50514.47;5058764;28;20538;-66
2021/11/17 12:45:01;;;;;;;29.90;5.30;;;;;;;-149.78;100.00;50440.16;5062290;28;20082;-67
2021/11/17 12:47:45;;;;;;;22.85;4.85;;;;;;;-149.78;100.00;50475.34;5061683;28;20103;-67
2021/11/17 12:50:17;;;;;;;19.17;4.40;;;;;;;-149.78;100.00;50447.97;5058961;28;20044;-67
2021/11/17 12:53:14;;;;;;;9.30;4.03;;;;;;;-149.78;100.00;50500.78;5055594;28;20025;-66
2021/11/17 12:56:20;;;;;;;22.00;5.97;;;;;;;-149.78;100.00;50475.34;5060669;28;20037;-66
2021/11/17 12:58:57;;;;;;;16.85;5.80;;;;;;;-149.78;100.00;50498.81;5052151;28;20029;-66
2021/11/17 13:01:34;;;;;;;25.20;5.78;;;;;;;-149.78;100.00;50502.75;5066460;28;20044;-66
2021/11/17 13:04:15;;;;;;;23.05;5.75;;;;;;;-149.78;100.00;50432.31;5056679;28;20357;-66
2021/11/17 13:06:41;;;;;;;24.97;6.30;;;;;;;-149.78;100.00;50498.81;5060842;28;20115;-66
2021/11/17 13:09:12;;;;;;;21.02;6.55;;;;;;;-149.78;100.00;50502.75;5070548;28;20147;-66
2021/11/17 13:12:06;;;;;;;24.77;7.50;;;;;;;-149.78;100.00;50465.56;5062557;28;20044;-66
2021/11/17 13:14:52;;;;;;;33.13;7.40;;;;;;;-149.78;100.00;50440.16;5063577;28;20380;-66
2021/11/17 13:17:21;;;;;;;18.52;6.70;;;;;;;-149.78;100.00;50479.28;5062458;28;20040;-66
2021/11/17 13:20:17;;;;;;;26.67;6.15;;;;;;;-149.78;100.00;50539.91;5068984;28;20040;-66
2021/11/17 13:22:51;;;;;;;24.60;6.82;;;;;;;-149.78;100.00;50467.53;5057941;28;20017;-66
2021/11/17 13:25:21;;;;;;;24.45;6.20;;;;;;;-149.78;100.00;50522.28;5061251;28;20029;-66
2021/11/17 13:27:51;;;;;;;23.23;5.30;;;;;;;-149.78;100.00;50475.34;5057931;28;20047;-66
2021/11/17 13:30:33;;;;;;;14.93;5.53;;;;;;;-149.78;100.00;50492.97;5062339;28;20058;-66
2021/11/17 13:33:29;;;;;;;13.57;6.17;;;;;;;-149.78;100.00;50498.81;5061972;28;20376;-66
2021/11/17 13:36:13;;;;;;;26.98;6.45;;;;;;;-149.78;100.00;50465.56;5059577;28;20084;-66
2021/11/17 13:38:57;;;;;;;27.25;7.10;;;;;;;-149.78;100.00;50471.44;5059911;28;20029;-66
2021/11/17 13:41:23;;;;;;;26.20;6.00;;;;;;;-149.78;100.00;50471.44;5059572;28;20029;-66
2021/11/17 13:43:49;;;;;;;16.27;5.05;;;;;;;-149.78;100.00;50481.22;5053412;28;20102;-66
2021/11/17 13:46:18;;;;;;;30.83;6.68;;;;;;;-149.78;100.00;50463.63;5055688;28;20135;-66
2021/11/17 13:48:45;;;;;;;45.15;8.75;;;;;;;-149.78;100.00;50502.75;5055518;28;20044;-66
2021/11/17 13:51:13;;;;;;;19.33;4.90;;;;;;;-149.78;100.00;50492.97;5059733;28;20029;-66
2021/11/17 13:53:40;;;;;;;25.20;4.10;;;;;;;-149.78;100.00;50491.00;5055223;28;20032;-66
2021/11/17 13:56:10;;;;;;;26.20;4.70;;;;;;;-149.78;100.00;50498.81;5052946;28;20075;-66
2021/11/17 13:58:35;;;;;;;48.75;7.10;;;;;;;-149.78;100.00;50467.53;5051909;28;20033;-66
2021/11/17 14:01:04;;;;;;;25.95;4.07;;;;;;;-149.78;100.00;50473.41;5060705;28;20060;-66
2021/11/17 14:03:31;;;;;;;56.40;8.00;;;;;;;-149.78;100.00;50475.34;5063367;28;20035;-66
2021/11/17 14:06:03;;;;;;;16.40;4.10;;;;;;;-149.78;100.00;50475.34;5061896;28;20047;-66
2021/11/17 14:08:30;;;;;;;31.88;5.72;;;;;;;-149.78;100.00;50479.28;5065051;28;20025;-66
2021/11/17 14:10:55;;;;;;;19.00;4.13;;;;;;;-149.78;100.00;50469.50;5063429;28;20051;-66
2021/11/17 14:13:22;;;;;;;23.15;4.70;;;;;;;-149.78;100.00;50508.59;5053506;28;20498;-66